sensor_id;sensor_type;location;lat;lon;timestamp;P1;durP1;ratioP1;P2;durP2;ratioP2
4521;SDS011;2273;48.464;11.926;2023-09-08T00:00:29;8.70;;;5.93;;
4521;SDS011;2273;48.464;11.926;2023-09-08T00:02:55;8.57;;;6.60;;
4521;SDS011;2273;48.464;11.926;2023-09-08T00:05:20;7.63;;;5.83;;
4521;SDS011;2273;48.464;11.926;2023-09-08T00:07:46;8.57;;;7.13;;
4521;SDS011;2273;48.464;11.926;2023-09-08T00:10:11;9.70;;;7.43;;
4521;SDS011;2273;48.464;11.926;2023-09-08T00:12:37;11.70;;;7.07;;
4521;SDS011;2273;48.464;11.926;2023-09-08T00:15:03;12.10;;;7.40;;
4521;SDS011;2273;48.464;11.926;2023-09-08T00:17:29;10.10;;;7.10;;
4521;SDS011;2273;48.464;11.926;2023-09-08T00:19:54;13.63;;;7.73;;
4521;SDS011;2273;48.464;11.926;2023-09-08T00:22:21;8.93;;;6.57;;
4521;SDS011;2273;48.464;11.926;2023-09-08T00:24:47;8.03;;;6.17;;
4521;SDS011;2273;48.464;11.926;2023-09-08T00:27:12;13.63;;;7.63;;
4521;SDS011;2273;48.464;11.926;2023-09-08T00:29:37;10.40;;;7.70;;
4521;SDS011;2273;48.464;11.926;2023-09-08T00:32:03;12.53;;;7.40;;
4521;SDS011;2273;48.464;11.926;2023-09-08T00:34:29;8.57;;;6.97;;
4521;SDS011;2273;48.464;11.926;2023-09-08T00:36:54;9.10;;;7.47;;
4521;SDS011;2273;48.464;11.926;2023-09-08T00:39:19;15.23;;;7.20;;
4521;SDS011;2273;48.464;11.926;2023-09-08T00:41:45;9.53;;;6.77;;
4521;SDS011;2273;48.464;11.926;2023-09-08T00:44:10;12.93;;;7.93;;
4521;SDS011;2273;48.464;11.926;2023-09-08T00:46:36;11.70;;;7.80;;
4521;SDS011;2273;48.464;11.926;2023-09-08T00:49:01;13.50;;;7.70;;
4521;SDS011;2273;48.464;11.926;2023-09-08T00:51:27;11.50;;;6.80;;
4521;SDS011;2273;48.464;11.926;2023-09-08T00:53:52;10.17;;;7.83;;
4521;SDS011;2273;48.464;11.926;2023-09-08T00:56:18;13.70;;;6.80;;
4521;SDS011;2273;48.464;11.926;2023-09-08T00:58:43;8.47;;;6.87;;
4521;SDS011;2273;48.464;11.926;2023-09-08T01:01:09;12.13;;;7.63;;
4521;SDS011;2273;48.464;11.926;2023-09-08T01:03:34;11.20;;;8.23;;
4521;SDS011;2273;48.464;11.926;2023-09-08T01:06:00;10.07;;;7.70;;
4521;SDS011;2273;48.464;11.926;2023-09-08T01:08:25;14.67;;;7.80;;
4521;SDS011;2273;48.464;11.926;2023-09-08T01:10:51;9.97;;;7.60;;
4521;SDS011;2273;48.464;11.926;2023-09-08T01:13:17;13.40;;;7.00;;
4521;SDS011;2273;48.464;11.926;2023-09-08T01:15:42;9.30;;;6.90;;
4521;SDS011;2273;48.464;11.926;2023-09-08T01:18:08;19.03;;;8.50;;
4521;SDS011;2273;48.464;11.926;2023-09-08T01:26:17;10.10;;;7.70;;
4521;SDS011;2273;48.464;11.926;2023-09-08T01:28:43;11.40;;;7.27;;
4521;SDS011;2273;48.464;11.926;2023-09-08T01:31:11;9.60;;;7.50;;
4521;SDS011;2273;48.464;11.926;2023-09-08T01:33:36;9.13;;;7.03;;
4521;SDS011;2273;48.464;11.926;2023-09-08T01:36:03;13.43;;;9.27;;
4521;SDS011;2273;48.464;11.926;2023-09-08T01:38:29;19.77;;;9.17;;
4521;SDS011;2273;48.464;11.926;2023-09-08T01:40:55;12.23;;;8.13;;
4521;SDS011;2273;48.464;11.926;2023-09-08T01:43:21;12.63;;;7.87;;
4521;SDS011;2273;48.464;11.926;2023-09-08T01:45:46;13.77;;;8.97;;
4521;SDS011;2273;48.464;11.926;2023-09-08T01:48:13;13.10;;;9.27;;
4521;SDS011;2273;48.464;11.926;2023-09-08T01:50:38;17.90;;;8.60;;
4521;SDS011;2273;48.464;11.926;2023-09-08T01:53:04;19.20;;;8.60;;
4521;SDS011;2273;48.464;11.926;2023-09-08T01:55:30;13.17;;;8.20;;
4521;SDS011;2273;48.464;11.926;2023-09-08T01:57:56;15.23;;;9.30;;
4521;SDS011;2273;48.464;11.926;2023-09-08T02:00:21;14.20;;;8.03;;
4521;SDS011;2273;48.464;11.926;2023-09-08T02:02:47;10.10;;;7.60;;
4521;SDS011;2273;48.464;11.926;2023-09-08T02:05:12;11.20;;;8.43;;
4521;SDS011;2273;48.464;11.926;2023-09-08T02:07:38;15.70;;;8.73;;
4521;SDS011;2273;48.464;11.926;2023-09-08T02:10:03;10.43;;;7.03;;
4521;SDS011;2273;48.464;11.926;2023-09-08T02:12:29;11.33;;;8.03;;
4521;SDS011;2273;48.464;11.926;2023-09-08T02:14:54;10.73;;;6.80;;
4521;SDS011;2273;48.464;11.926;2023-09-08T02:17:20;12.23;;;6.83;;
4521;SDS011;2273;48.464;11.926;2023-09-08T02:19:45;15.90;;;8.27;;
4521;SDS011;2273;48.464;11.926;2023-09-08T02:22:11;14.33;;;7.60;;
4521;SDS011;2273;48.464;11.926;2023-09-08T02:24:36;9.67;;;7.20;;
4521;SDS011;2273;48.464;11.926;2023-09-08T02:27:02;9.80;;;7.73;;
4521;SDS011;2273;48.464;11.926;2023-09-08T02:29:28;11.40;;;7.80;;
4521;SDS011;2273;48.464;11.926;2023-09-08T02:31:54;21.50;;;8.73;;
4521;SDS011;2273;48.464;11.926;2023-09-08T02:34:19;11.13;;;8.23;;
4521;SDS011;2273;48.464;11.926;2023-09-08T02:36:45;11.43;;;7.93;;
4521;SDS011;2273;48.464;11.926;2023-09-08T02:39:13;11.30;;;8.73;;
4521;SDS011;2273;48.464;11.926;2023-09-08T02:41:39;13.40;;;8.47;;
4521;SDS011;2273;48.464;11.926;2023-09-08T02:44:05;13.10;;;8.70;;
4521;SDS011;2273;48.464;11.926;2023-09-08T02:46:30;15.57;;;9.40;;
4521;SDS011;2273;48.464;11.926;2023-09-08T02:48:56;11.73;;;8.17;;
4521;SDS011;2273;48.464;11.926;2023-09-08T02:51:21;10.13;;;8.10;;
4521;SDS011;2273;48.464;11.926;2023-09-08T02:53:46;12.03;;;7.97;;
4521;SDS011;2273;48.464;11.926;2023-09-08T02:56:12;16.33;;;8.73;;
4521;SDS011;2273;48.464;11.926;2023-09-08T02:58:37;12.63;;;8.93;;
4521;SDS011;2273;48.464;11.926;2023-09-08T03:01:16;11.83;;;8.43;;
4521;SDS011;2273;48.464;11.926;2023-09-08T03:03:45;11.90;;;9.27;;
4521;SDS011;2273;48.464;11.926;2023-09-08T03:06:11;13.37;;;8.53;;
4521;SDS011;2273;48.464;11.926;2023-09-08T03:08:39;14.77;;;8.40;;
4521;SDS011;2273;48.464;11.926;2023-09-08T03:11:04;24.10;;;8.60;;
4521;SDS011;2273;48.464;11.926;2023-09-08T03:13:31;9.57;;;7.30;;
4521;SDS011;2273;48.464;11.926;2023-09-08T03:15:57;9.90;;;8.13;;
4521;SDS011;2273;48.464;11.926;2023-09-08T03:18:27;11.07;;;8.37;;
4521;SDS011;2273;48.464;11.926;2023-09-08T03:20:54;12.47;;;8.50;;
4521;SDS011;2273;48.464;11.926;2023-09-08T03:23:19;11.10;;;8.63;;
4521;SDS011;2273;48.464;11.926;2023-09-08T03:25:45;12.67;;;9.10;;
4521;SDS011;2273;48.464;11.926;2023-09-08T03:28:11;17.53;;;10.07;;
4521;SDS011;2273;48.464;11.926;2023-09-08T03:30:36;16.60;;;9.70;;
4521;SDS011;2273;48.464;11.926;2023-09-08T03:33:02;17.77;;;9.60;;
4521;SDS011;2273;48.464;11.926;2023-09-08T03:35:27;13.10;;;9.53;;
4521;SDS011;2273;48.464;11.926;2023-09-08T03:37:53;13.47;;;8.30;;
4521;SDS011;2273;48.464;11.926;2023-09-08T03:40:18;12.47;;;8.60;;
4521;SDS011;2273;48.464;11.926;2023-09-08T03:42:44;12.77;;;8.57;;
4521;SDS011;2273;48.464;11.926;2023-09-08T03:45:09;13.10;;;8.90;;
4521;SDS011;2273;48.464;11.926;2023-09-08T03:47:35;11.67;;;8.50;;
4521;SDS011;2273;48.464;11.926;2023-09-08T03:50:00;13.53;;;8.03;;
4521;SDS011;2273;48.464;11.926;2023-09-08T03:52:26;11.50;;;8.70;;
4521;SDS011;2273;48.464;11.926;2023-09-08T03:54:51;11.20;;;8.30;;
4521;SDS011;2273;48.464;11.926;2023-09-08T03:57:17;11.30;;;8.00;;
4521;SDS011;2273;48.464;11.926;2023-09-08T03:59:43;14.00;;;8.30;;
4521;SDS011;2273;48.464;11.926;2023-09-08T04:02:09;12.37;;;8.30;;
4521;SDS011;2273;48.464;11.926;2023-09-08T04:04:34;19.40;;;9.10;;
4521;SDS011;2273;48.464;11.926;2023-09-08T04:06:59;11.07;;;8.90;;
4521;SDS011;2273;48.464;11.926;2023-09-08T04:09:25;17.70;;;8.83;;
4521;SDS011;2273;48.464;11.926;2023-09-08T04:11:51;11.07;;;8.77;;
4521;SDS011;2273;48.464;11.926;2023-09-08T04:14:16;10.47;;;8.00;;
4521;SDS011;2273;48.464;11.926;2023-09-08T04:16:42;12.23;;;8.70;;
4521;SDS011;2273;48.464;11.926;2023-09-08T04:19:07;14.43;;;7.97;;
4521;SDS011;2273;48.464;11.926;2023-09-08T04:21:33;13.43;;;8.03;;
4521;SDS011;2273;48.464;11.926;2023-09-08T04:23:58;9.87;;;7.93;;
4521;SDS011;2273;48.464;11.926;2023-09-08T04:26:24;11.80;;;9.30;;
4521;SDS011;2273;48.464;11.926;2023-09-08T04:28:50;12.40;;;8.90;;
4521;SDS011;2273;48.464;11.926;2023-09-08T04:31:15;11.10;;;8.40;;
4521;SDS011;2273;48.464;11.926;2023-09-08T04:33:43;14.80;;;8.07;;
4521;SDS011;2273;48.464;11.926;2023-09-08T04:36:08;14.20;;;7.73;;
4521;SDS011;2273;48.464;11.926;2023-09-08T04:38:36;12.97;;;8.27;;
4521;SDS011;2273;48.464;11.926;2023-09-08T04:41:01;12.67;;;8.60;;
4521;SDS011;2273;48.464;11.926;2023-09-08T04:43:27;12.17;;;8.03;;
4521;SDS011;2273;48.464;11.926;2023-09-08T04:45:52;10.30;;;7.70;;
4521;SDS011;2273;48.464;11.926;2023-09-08T04:48:18;14.23;;;9.13;;
4521;SDS011;2273;48.464;11.926;2023-09-08T04:50:43;11.57;;;8.60;;
4521;SDS011;2273;48.464;11.926;2023-09-08T04:53:08;14.33;;;8.67;;
4521;SDS011;2273;48.464;11.926;2023-09-08T04:55:34;17.63;;;9.43;;
4521;SDS011;2273;48.464;11.926;2023-09-08T04:57:59;13.50;;;9.30;;
4521;SDS011;2273;48.464;11.926;2023-09-08T05:00:25;10.50;;;8.80;;
4521;SDS011;2273;48.464;11.926;2023-09-08T05:02:50;11.13;;;8.27;;
4521;SDS011;2273;48.464;11.926;2023-09-08T05:05:16;16.43;;;10.67;;
4521;SDS011;2273;48.464;11.926;2023-09-08T05:07:41;14.13;;;9.80;;
4521;SDS011;2273;48.464;11.926;2023-09-08T05:10:07;18.43;;;9.40;;
4521;SDS011;2273;48.464;11.926;2023-09-08T05:12:34;14.00;;;9.93;;
4521;SDS011;2273;48.464;11.926;2023-09-08T05:15:00;15.60;;;8.97;;
4521;SDS011;2273;48.464;11.926;2023-09-08T05:17:32;15.17;;;9.00;;
4521;SDS011;2273;48.464;11.926;2023-09-08T05:19:59;13.10;;;9.07;;
4521;SDS011;2273;48.464;11.926;2023-09-08T05:22:24;14.33;;;9.13;;
4521;SDS011;2273;48.464;11.926;2023-09-08T05:24:50;14.23;;;9.60;;
4521;SDS011;2273;48.464;11.926;2023-09-08T05:27:16;13.53;;;9.27;;
4521;SDS011;2273;48.464;11.926;2023-09-08T05:29:41;10.80;;;8.80;;
4521;SDS011;2273;48.464;11.926;2023-09-08T05:32:06;13.43;;;8.60;;
4521;SDS011;2273;48.464;11.926;2023-09-08T05:34:32;13.93;;;8.17;;
4521;SDS011;2273;48.464;11.926;2023-09-08T05:36:57;12.87;;;8.50;;
4521;SDS011;2273;48.464;11.926;2023-09-08T05:39:23;13.27;;;9.50;;
4521;SDS011;2273;48.464;11.926;2023-09-08T05:41:48;14.47;;;8.97;;
4521;SDS011;2273;48.464;11.926;2023-09-08T05:44:14;12.87;;;9.10;;
4521;SDS011;2273;48.464;11.926;2023-09-08T05:46:40;13.93;;;9.30;;
4521;SDS011;2273;48.464;11.926;2023-09-08T05:49:06;17.93;;;9.17;;
4521;SDS011;2273;48.464;11.926;2023-09-08T05:51:32;13.50;;;9.43;;
4521;SDS011;2273;48.464;11.926;2023-09-08T05:53:57;24.87;;;8.70;;
4521;SDS011;2273;48.464;11.926;2023-09-08T05:56:30;16.10;;;8.97;;
4521;SDS011;2273;48.464;11.926;2023-09-08T05:58:57;19.80;;;9.47;;
4521;SDS011;2273;48.464;11.926;2023-09-08T06:01:23;14.80;;;10.30;;
4521;SDS011;2273;48.464;11.926;2023-09-08T06:03:49;15.63;;;10.43;;
4521;SDS011;2273;48.464;11.926;2023-09-08T06:06:15;17.87;;;10.90;;
4521;SDS011;2273;48.464;11.926;2023-09-08T06:08:41;16.90;;;11.17;;
4521;SDS011;2273;48.464;11.926;2023-09-08T06:11:06;13.87;;;9.20;;
4521;SDS011;2273;48.464;11.926;2023-09-08T06:13:34;18.63;;;10.03;;
4521;SDS011;2273;48.464;11.926;2023-09-08T06:15:59;15.93;;;9.47;;
4521;SDS011;2273;48.464;11.926;2023-09-08T06:18:27;15.33;;;9.80;;
4521;SDS011;2273;48.464;11.926;2023-09-08T06:20:53;14.10;;;10.50;;
4521;SDS011;2273;48.464;11.926;2023-09-08T06:23:19;15.97;;;11.13;;
4521;SDS011;2273;48.464;11.926;2023-09-08T06:25:46;17.87;;;10.43;;
4521;SDS011;2273;48.464;11.926;2023-09-08T06:28:12;17.57;;;9.93;;
4521;SDS011;2273;48.464;11.926;2023-09-08T06:30:37;22.83;;;9.30;;
4521;SDS011;2273;48.464;11.926;2023-09-08T06:33:10;14.33;;;9.57;;
4521;SDS011;2273;48.464;11.926;2023-09-08T06:35:36;13.27;;;9.10;;
4521;SDS011;2273;48.464;11.926;2023-09-08T06:38:02;12.17;;;8.83;;
4521;SDS011;2273;48.464;11.926;2023-09-08T06:40:31;18.50;;;9.70;;
4521;SDS011;2273;48.464;11.926;2023-09-08T06:42:57;10.20;;;7.87;;
4521;SDS011;2273;48.464;11.926;2023-09-08T06:45:40;14.97;;;9.20;;
4521;SDS011;2273;48.464;11.926;2023-09-08T06:48:06;12.50;;;9.37;;
4521;SDS011;2273;48.464;11.926;2023-09-08T06:50:31;12.13;;;8.47;;
4521;SDS011;2273;48.464;11.926;2023-09-08T06:52:57;12.90;;;8.90;;
4521;SDS011;2273;48.464;11.926;2023-09-08T06:55:22;11.57;;;8.30;;
4521;SDS011;2273;48.464;11.926;2023-09-08T06:57:48;12.70;;;9.30;;
4521;SDS011;2273;48.464;11.926;2023-09-08T07:00:14;15.60;;;9.37;;
4521;SDS011;2273;48.464;11.926;2023-09-08T07:02:41;11.10;;;8.77;;
4521;SDS011;2273;48.464;11.926;2023-09-08T07:05:07;13.03;;;8.30;;
4521;SDS011;2273;48.464;11.926;2023-09-08T07:07:34;10.07;;;8.13;;
4521;SDS011;2273;48.464;11.926;2023-09-08T07:10:01;15.93;;;8.60;;
4521;SDS011;2273;48.464;11.926;2023-09-08T07:12:28;10.87;;;8.67;;
4521;SDS011;2273;48.464;11.926;2023-09-08T07:14:53;13.27;;;9.30;;
4521;SDS011;2273;48.464;11.926;2023-09-08T07:17:19;18.57;;;8.77;;
4521;SDS011;2273;48.464;11.926;2023-09-08T07:19:44;16.60;;;8.30;;
4521;SDS011;2273;48.464;11.926;2023-09-08T07:22:10;12.07;;;7.93;;
4521;SDS011;2273;48.464;11.926;2023-09-08T07:24:36;14.40;;;9.13;;
4521;SDS011;2273;48.464;11.926;2023-09-08T07:27:01;12.57;;;8.40;;
4521;SDS011;2273;48.464;11.926;2023-09-08T07:29:27;10.20;;;7.70;;
4521;SDS011;2273;48.464;11.926;2023-09-08T07:31:53;13.20;;;9.13;;
4521;SDS011;2273;48.464;11.926;2023-09-08T07:34:19;11.37;;;8.50;;
4521;SDS011;2273;48.464;11.926;2023-09-08T07:36:44;14.10;;;8.20;;
4521;SDS011;2273;48.464;11.926;2023-09-08T07:39:10;10.10;;;8.60;;
4521;SDS011;2273;48.464;11.926;2023-09-08T07:41:35;9.40;;;8.20;;
4521;SDS011;2273;48.464;11.926;2023-09-08T07:44:01;11.03;;;8.60;;
4521;SDS011;2273;48.464;11.926;2023-09-08T07:46:27;11.47;;;8.93;;
4521;SDS011;2273;48.464;11.926;2023-09-08T07:48:52;13.23;;;8.00;;
4521;SDS011;2273;48.464;11.926;2023-09-08T07:51:18;11.60;;;8.60;;
4521;SDS011;2273;48.464;11.926;2023-09-08T07:53:43;11.80;;;8.90;;
4521;SDS011;2273;48.464;11.926;2023-09-08T07:56:09;11.10;;;8.40;;
4521;SDS011;2273;48.464;11.926;2023-09-08T07:58:34;14.43;;;8.80;;
4521;SDS011;2273;48.464;11.926;2023-09-08T08:00:59;13.87;;;8.83;;
4521;SDS011;2273;48.464;11.926;2023-09-08T08:03:25;13.07;;;8.50;;
4521;SDS011;2273;48.464;11.926;2023-09-08T08:05:50;11.93;;;10.10;;
4521;SDS011;2273;48.464;11.926;2023-09-08T08:08:16;11.63;;;8.80;;
4521;SDS011;2273;48.464;11.926;2023-09-08T08:10:41;15.83;;;9.37;;
4521;SDS011;2273;48.464;11.926;2023-09-08T08:13:07;16.13;;;8.40;;
4521;SDS011;2273;48.464;11.926;2023-09-08T08:15:36;11.50;;;8.90;;
4521;SDS011;2273;48.464;11.926;2023-09-08T08:18:03;14.13;;;8.43;;
4521;SDS011;2273;48.464;11.926;2023-09-08T08:20:29;12.50;;;9.40;;
4521;SDS011;2273;48.464;11.926;2023-09-08T08:22:59;14.53;;;9.93;;
4521;SDS011;2273;48.464;11.926;2023-09-08T08:25:25;11.87;;;9.20;;
4521;SDS011;2273;48.464;11.926;2023-09-08T08:27:50;16.27;;;9.33;;
4521;SDS011;2273;48.464;11.926;2023-09-08T08:30:16;15.43;;;9.50;;
4521;SDS011;2273;48.464;11.926;2023-09-08T08:32:42;11.97;;;8.80;;
4521;SDS011;2273;48.464;11.926;2023-09-08T08:35:08;11.67;;;9.10;;
4521;SDS011;2273;48.464;11.926;2023-09-08T08:37:33;16.20;;;9.97;;
4521;SDS011;2273;48.464;11.926;2023-09-08T08:39:58;15.10;;;9.90;;
4521;SDS011;2273;48.464;11.926;2023-09-08T08:42:24;16.03;;;10.67;;
4521;SDS011;2273;48.464;11.926;2023-09-08T08:44:56;13.10;;;9.37;;
4521;SDS011;2273;48.464;11.926;2023-09-08T08:47:22;12.60;;;9.80;;
4521;SDS011;2273;48.464;11.926;2023-09-08T08:49:47;15.17;;;10.30;;
4521;SDS011;2273;48.464;11.926;2023-09-08T08:52:14;15.27;;;9.40;;
4521;SDS011;2273;48.464;11.926;2023-09-08T08:54:40;15.97;;;10.47;;
4521;SDS011;2273;48.464;11.926;2023-09-08T08:57:06;13.10;;;9.73;;
4521;SDS011;2273;48.464;11.926;2023-09-08T08:59:32;10.50;;;8.77;;
4521;SDS011;2273;48.464;11.926;2023-09-08T09:01:58;13.33;;;9.70;;
4521;SDS011;2273;48.464;11.926;2023-09-08T09:04:24;13.60;;;10.40;;
4521;SDS011;2273;48.464;11.926;2023-09-08T09:06:50;12.90;;;9.90;;
4521;SDS011;2273;48.464;11.926;2023-09-08T09:09:16;14.90;;;10.73;;
4521;SDS011;2273;48.464;11.926;2023-09-08T09:11:41;14.70;;;9.77;;
4521;SDS011;2273;48.464;11.926;2023-09-08T09:14:08;12.77;;;9.50;;
4521;SDS011;2273;48.464;11.926;2023-09-08T09:16:38;13.07;;;10.03;;
4521;SDS011;2273;48.464;11.926;2023-09-08T09:19:05;14.73;;;9.73;;
4521;SDS011;2273;48.464;11.926;2023-09-08T09:21:43;12.80;;;9.47;;
4521;SDS011;2273;48.464;11.926;2023-09-08T09:24:14;14.10;;;9.90;;
4521;SDS011;2273;48.464;11.926;2023-09-08T09:26:41;13.17;;;10.20;;
4521;SDS011;2273;48.464;11.926;2023-09-08T09:29:15;14.70;;;8.93;;
4521;SDS011;2273;48.464;11.926;2023-09-08T09:31:51;13.80;;;10.00;;
4521;SDS011;2273;48.464;11.926;2023-09-08T09:34:20;15.30;;;9.30;;
4521;SDS011;2273;48.464;11.926;2023-09-08T09:36:50;22.73;;;9.63;;
4521;SDS011;2273;48.464;11.926;2023-09-08T09:39:22;10.93;;;8.80;;
4521;SDS011;2273;48.464;11.926;2023-09-08T09:41:54;13.27;;;9.47;;
4521;SDS011;2273;48.464;11.926;2023-09-08T09:44:21;17.73;;;9.23;;
4521;SDS011;2273;48.464;11.926;2023-09-08T09:46:47;12.10;;;8.10;;
4521;SDS011;2273;48.464;11.926;2023-09-08T09:49:14;14.60;;;9.30;;
4521;SDS011;2273;48.464;11.926;2023-09-08T09:51:42;11.60;;;8.67;;
4521;SDS011;2273;48.464;11.926;2023-09-08T09:54:08;12.77;;;9.13;;
4521;SDS011;2273;48.464;11.926;2023-09-08T09:56:34;11.90;;;9.67;;
4521;SDS011;2273;48.464;11.926;2023-09-08T09:59:03;14.47;;;9.43;;
4521;SDS011;2273;48.464;11.926;2023-09-08T10:01:29;13.17;;;8.33;;
4521;SDS011;2273;48.464;11.926;2023-09-08T10:03:55;13.00;;;8.90;;
4521;SDS011;2273;48.464;11.926;2023-09-08T10:06:20;14.33;;;8.87;;
4521;SDS011;2273;48.464;11.926;2023-09-08T10:08:46;11.00;;;8.87;;
4521;SDS011;2273;48.464;11.926;2023-09-08T10:11:12;10.63;;;8.80;;
4521;SDS011;2273;48.464;11.926;2023-09-08T10:13:42;11.07;;;8.43;;
4521;SDS011;2273;48.464;11.926;2023-09-08T10:16:10;13.70;;;8.83;;
4521;SDS011;2273;48.464;11.926;2023-09-08T10:18:38;11.67;;;8.70;;
4521;SDS011;2273;48.464;11.926;2023-09-08T10:21:04;13.17;;;9.67;;
4521;SDS011;2273;48.464;11.926;2023-09-08T10:23:35;13.53;;;9.40;;
4521;SDS011;2273;48.464;11.926;2023-09-08T10:26:03;8.53;;;7.63;;
4521;SDS011;2273;48.464;11.926;2023-09-08T10:28:32;14.30;;;9.27;;
4521;SDS011;2273;48.464;11.926;2023-09-08T10:30:57;15.83;;;8.70;;
4521;SDS011;2273;48.464;11.926;2023-09-08T10:33:23;11.27;;;8.63;;
4521;SDS011;2273;48.464;11.926;2023-09-08T10:35:49;14.30;;;8.43;;
4521;SDS011;2273;48.464;11.926;2023-09-08T10:38:21;12.40;;;8.53;;
4521;SDS011;2273;48.464;11.926;2023-09-08T10:40:54;10.67;;;8.17;;
4521;SDS011;2273;48.464;11.926;2023-09-08T10:43:57;9.90;;;7.77;;
4521;SDS011;2273;48.464;11.926;2023-09-08T10:46:27;10.90;;;7.90;;
4521;SDS011;2273;48.464;11.926;2023-09-08T10:48:53;17.43;;;8.77;;
4521;SDS011;2273;48.464;11.926;2023-09-08T10:51:19;14.47;;;8.80;;
4521;SDS011;2273;48.464;11.926;2023-09-08T10:53:47;11.53;;;8.40;;
4521;SDS011;2273;48.464;11.926;2023-09-08T10:56:14;13.60;;;8.33;;
4521;SDS011;2273;48.464;11.926;2023-09-08T10:58:40;14.90;;;10.27;;
4521;SDS011;2273;48.464;11.926;2023-09-08T11:01:08;13.57;;;9.87;;
4521;SDS011;2273;48.464;11.926;2023-09-08T11:06:03;11.83;;;8.17;;
4521;SDS011;2273;48.464;11.926;2023-09-08T11:08:29;11.37;;;8.80;;
4521;SDS011;2273;48.464;11.926;2023-09-08T11:10:55;12.13;;;8.50;;
4521;SDS011;2273;48.464;11.926;2023-09-08T11:13:21;12.53;;;7.90;;
4521;SDS011;2273;48.464;11.926;2023-09-08T11:15:47;13.07;;;9.53;;
4521;SDS011;2273;48.464;11.926;2023-09-08T11:18:12;11.23;;;7.60;;
4521;SDS011;2273;48.464;11.926;2023-09-08T11:20:38;14.50;;;8.10;;
4521;SDS011;2273;48.464;11.926;2023-09-08T11:23:03;12.47;;;9.37;;
4521;SDS011;2273;48.464;11.926;2023-09-08T11:25:31;11.30;;;8.60;;
4521;SDS011;2273;48.464;11.926;2023-09-08T11:27:57;13.83;;;8.20;;
4521;SDS011;2273;48.464;11.926;2023-09-08T11:30:23;8.80;;;7.70;;
4521;SDS011;2273;48.464;11.926;2023-09-08T11:32:49;15.83;;;9.23;;
4521;SDS011;2273;48.464;11.926;2023-09-08T11:35:16;14.50;;;8.50;;
4521;SDS011;2273;48.464;11.926;2023-09-08T11:37:41;13.00;;;7.97;;
4521;SDS011;2273;48.464;11.926;2023-09-08T11:40:07;13.30;;;8.10;;
4521;SDS011;2273;48.464;11.926;2023-09-08T11:42:40;19.57;;;8.47;;
4521;SDS011;2273;48.464;11.926;2023-09-08T11:45:12;10.93;;;8.43;;
4521;SDS011;2273;48.464;11.926;2023-09-08T11:47:43;10.50;;;8.00;;
4521;SDS011;2273;48.464;11.926;2023-09-08T11:50:12;9.17;;;7.50;;
4521;SDS011;2273;48.464;11.926;2023-09-08T11:52:43;10.70;;;8.07;;
4521;SDS011;2273;48.464;11.926;2023-09-08T11:55:12;10.33;;;7.47;;
4521;SDS011;2273;48.464;11.926;2023-09-08T11:57:38;15.23;;;7.67;;
4521;SDS011;2273;48.464;11.926;2023-09-08T12:00:05;15.03;;;7.87;;
4521;SDS011;2273;48.464;11.926;2023-09-08T12:02:35;11.80;;;8.00;;
4521;SDS011;2273;48.464;11.926;2023-09-08T12:05:02;12.70;;;7.87;;
4521;SDS011;2273;48.464;11.926;2023-09-08T12:07:28;13.60;;;7.23;;
4521;SDS011;2273;48.464;11.926;2023-09-08T12:09:53;9.33;;;7.30;;
4521;SDS011;2273;48.464;11.926;2023-09-08T12:12:19;13.00;;;7.20;;
4521;SDS011;2273;48.464;11.926;2023-09-08T12:14:44;8.60;;;7.37;;
4521;SDS011;2273;48.464;11.926;2023-09-08T12:17:10;9.03;;;7.57;;
4521;SDS011;2273;48.464;11.926;2023-09-08T12:19:35;9.30;;;7.50;;
4521;SDS011;2273;48.464;11.926;2023-09-08T12:22:02;11.10;;;7.80;;
4521;SDS011;2273;48.464;11.926;2023-09-08T12:27:19;12.90;;;8.83;;
4521;SDS011;2273;48.464;11.926;2023-09-08T12:29:54;11.47;;;8.70;;
4521;SDS011;2273;48.464;11.926;2023-09-08T12:32:24;12.87;;;7.03;;
4521;SDS011;2273;48.464;11.926;2023-09-08T12:34:51;9.60;;;7.57;;
4521;SDS011;2273;48.464;11.926;2023-09-08T12:37:23;8.00;;;7.20;;
4521;SDS011;2273;48.464;11.926;2023-09-08T12:39:49;15.13;;;7.10;;
4521;SDS011;2273;48.464;11.926;2023-09-08T12:42:15;13.63;;;6.93;;
4521;SDS011;2273;48.464;11.926;2023-09-08T12:44:40;9.70;;;6.83;;
4521;SDS011;2273;48.464;11.926;2023-09-08T12:47:06;9.63;;;7.53;;
4521;SDS011;2273;48.464;11.926;2023-09-08T12:49:31;7.90;;;6.80;;
4521;SDS011;2273;48.464;11.926;2023-09-08T12:51:57;9.83;;;7.23;;
4521;SDS011;2273;48.464;11.926;2023-09-08T12:54:22;7.50;;;6.67;;
4521;SDS011;2273;48.464;11.926;2023-09-08T12:56:48;8.20;;;6.87;;
4521;SDS011;2273;48.464;11.926;2023-09-08T12:59:13;7.77;;;6.87;;
4521;SDS011;2273;48.464;11.926;2023-09-08T13:01:38;7.83;;;7.03;;
4521;SDS011;2273;48.464;11.926;2023-09-08T13:04:04;8.20;;;6.80;;
4521;SDS011;2273;48.464;11.926;2023-09-08T13:06:30;10.83;;;7.33;;
4521;SDS011;2273;48.464;11.926;2023-09-08T13:08:57;8.80;;;6.70;;
4521;SDS011;2273;48.464;11.926;2023-09-08T13:11:23;13.10;;;7.13;;
4521;SDS011;2273;48.464;11.926;2023-09-08T13:13:49;9.43;;;6.73;;
4521;SDS011;2273;48.464;11.926;2023-09-08T13:16:14;7.90;;;7.10;;
4521;SDS011;2273;48.464;11.926;2023-09-08T13:18:40;9.70;;;7.13;;
4521;SDS011;2273;48.464;11.926;2023-09-08T13:21:06;9.43;;;6.80;;
4521;SDS011;2273;48.464;11.926;2023-09-08T13:23:31;9.10;;;7.67;;
4521;SDS011;2273;48.464;11.926;2023-09-08T13:25:57;9.60;;;7.43;;
4521;SDS011;2273;48.464;11.926;2023-09-08T13:28:22;10.47;;;6.73;;
4521;SDS011;2273;48.464;11.926;2023-09-08T13:30:48;9.27;;;7.23;;
4521;SDS011;2273;48.464;11.926;2023-09-08T13:33:13;7.30;;;6.60;;
4521;SDS011;2273;48.464;11.926;2023-09-08T13:35:38;8.90;;;6.50;;
4521;SDS011;2273;48.464;11.926;2023-09-08T13:38:04;8.87;;;6.80;;
4521;SDS011;2273;48.464;11.926;2023-09-08T13:40:30;9.60;;;7.10;;
4521;SDS011;2273;48.464;11.926;2023-09-08T13:42:55;9.07;;;7.50;;
4521;SDS011;2273;48.464;11.926;2023-09-08T13:45:21;8.70;;;6.90;;
4521;SDS011;2273;48.464;11.926;2023-09-08T13:47:46;8.00;;;6.50;;
4521;SDS011;2273;48.464;11.926;2023-09-08T13:50:11;7.33;;;6.53;;
4521;SDS011;2273;48.464;11.926;2023-09-08T13:52:37;7.60;;;6.80;;
4521;SDS011;2273;48.464;11.926;2023-09-08T13:55:05;9.13;;;6.80;;
4521;SDS011;2273;48.464;11.926;2023-09-08T13:57:31;12.03;;;7.83;;
4521;SDS011;2273;48.464;11.926;2023-09-08T13:59:56;8.87;;;6.70;;
4521;SDS011;2273;48.464;11.926;2023-09-08T14:02:22;9.80;;;6.73;;
4521;SDS011;2273;48.464;11.926;2023-09-08T14:04:47;8.90;;;6.47;;
4521;SDS011;2273;48.464;11.926;2023-09-08T14:07:12;7.70;;;6.60;;
4521;SDS011;2273;48.464;11.926;2023-09-08T14:09:39;13.63;;;7.00;;
4521;SDS011;2273;48.464;11.926;2023-09-08T14:12:04;7.87;;;6.30;;
4521;SDS011;2273;48.464;11.926;2023-09-08T14:14:30;7.87;;;6.90;;
4521;SDS011;2273;48.464;11.926;2023-09-08T14:16:55;7.17;;;6.43;;
4521;SDS011;2273;48.464;11.926;2023-09-08T14:19:21;7.17;;;6.43;;
4521;SDS011;2273;48.464;11.926;2023-09-08T14:21:46;7.23;;;6.50;;
4521;SDS011;2273;48.464;11.926;2023-09-08T14:24:12;7.30;;;6.60;;
4521;SDS011;2273;48.464;11.926;2023-09-08T14:26:37;8.40;;;6.13;;
4521;SDS011;2273;48.464;11.926;2023-09-08T14:29:02;6.77;;;5.77;;
4521;SDS011;2273;48.464;11.926;2023-09-08T14:31:28;7.10;;;6.33;;
4521;SDS011;2273;48.464;11.926;2023-09-08T14:33:54;7.43;;;5.90;;
4521;SDS011;2273;48.464;11.926;2023-09-08T14:36:20;9.00;;;6.33;;
4521;SDS011;2273;48.464;11.926;2023-09-08T14:38:46;11.47;;;5.73;;
4521;SDS011;2273;48.464;11.926;2023-09-08T14:41:12;8.37;;;6.00;;
4521;SDS011;2273;48.464;11.926;2023-09-08T14:43:37;6.33;;;5.73;;
4521;SDS011;2273;48.464;11.926;2023-09-08T14:46:02;8.77;;;6.00;;
4521;SDS011;2273;48.464;11.926;2023-09-08T14:48:28;9.30;;;6.70;;
4521;SDS011;2273;48.464;11.926;2023-09-08T14:50:54;12.60;;;5.97;;
4521;SDS011;2273;48.464;11.926;2023-09-08T14:53:22;7.20;;;6.03;;
4521;SDS011;2273;48.464;11.926;2023-09-08T14:55:48;6.83;;;5.77;;